06D

Rolla Municipal Airport

Rolla, North Dakota, USA
METAR K06D 210935Z AUTO 00000KT 10SM CLR 11/11 A3013 RMK AO2
Observed Flight Rules
Jul-21 @ 09:35 UTC (8 minutes ago) Visual Flight Rules
Visibility Clouds
10 miles
  • Clear skies
Temperatures Readings
Current 11°C / 52°F
Dewpoint 11°C / 52°F
Humidity 100%
Altimeter 30.13" Hg
Pressure 1020 hPa
Elevation 556
METAR K06D 210935Z AUTO 00000KT 10SM CLR 11/11 A3013 RMK AO2
Observed Flight Rules
Jul-21 @ 09:35 UTC
(8 minutes ago)
VFR
Clouds
  • Clear skies
Temperature Dewpoint
11°C / 52°F 11°C / 52°F
Humidity Altimeter Pressure
100% 30.13" Hg 1020 hPa